createdAt,value
2023-07-02T00:00:53.210Z,3.60
2023-07-02T00:01:53.231Z,3.80
2023-07-02T00:02:53.212Z,3.50
2023-07-02T00:03:53.185Z,3.40
2023-07-02T00:04:53.198Z,3.60
2023-07-02T00:05:53.167Z,3.90
2023-07-02T00:06:53.131Z,3.70
2023-07-02T00:07:53.217Z,3.90
2023-07-02T00:08:53.108Z,4.80
2023-07-02T00:09:53.090Z,4.30
2023-07-02T00:10:53.174Z,4.70
2023-07-02T00:11:53.077Z,3.90
2023-07-02T00:12:53.066Z,3.80
2023-07-02T00:13:53.051Z,4.20
2023-07-02T00:14:53.047Z,3.80
2023-07-02T00:15:53.040Z,4.00
2023-07-02T00:16:53.041Z,3.80
2023-07-02T00:17:53.059Z,3.80
2023-07-02T00:18:53.003Z,4.10
2023-07-02T00:19:53.609Z,4.40
2023-07-02T00:20:52.995Z,4.30
2023-07-02T00:21:52.972Z,3.90
2023-07-02T00:22:52.957Z,3.90
2023-07-02T00:23:52.955Z,4.20
2023-07-02T00:24:52.962Z,4.40
2023-07-02T00:25:52.921Z,4.50
2023-07-02T00:26:52.933Z,5.00
2023-07-02T00:27:52.906Z,4.70
2023-07-02T00:28:52.908Z,4.80
2023-07-02T00:29:52.896Z,4.50
2023-07-02T00:30:52.911Z,4.70
2023-07-02T00:31:52.863Z,4.80
2023-07-02T00:32:52.908Z,4.80
2023-07-02T00:33:52.893Z,5.10
2023-07-02T00:34:52.870Z,4.60
2023-07-02T00:35:52.828Z,4.80
2023-07-02T00:36:52.812Z,5.20
2023-07-02T00:37:52.806Z,5.40
2023-07-02T00:38:52.810Z,4.90
2023-07-02T00:39:52.793Z,5.40
2023-07-02T00:40:52.770Z,5.40
2023-07-02T00:41:52.778Z,5.50
2023-07-02T00:42:52.760Z,5.70
2023-07-02T00:43:52.774Z,5.60
2023-07-02T00:44:52.726Z,5.60
2023-07-02T00:45:52.735Z,5.20
2023-07-02T00:46:52.857Z,5.70
2023-07-02T00:47:52.704Z,5.30
2023-07-02T00:48:52.709Z,5.20
2023-07-02T00:49:52.674Z,5.70
2023-07-02T00:50:52.680Z,5.70
2023-07-02T00:51:52.654Z,5.90
2023-07-02T00:52:52.681Z,5.30
2023-07-02T00:53:52.644Z,5.40
2023-07-02T00:54:52.623Z,5.60
2023-07-02T00:55:52.608Z,5.80
2023-07-02T00:56:52.602Z,5.70
2023-07-02T00:57:52.606Z,5.80
2023-07-02T00:58:52.590Z,6.10
2023-07-02T00:59:52.573Z,6.50
2023-07-02T01:00:52.565Z,6.40
2023-07-02T01:01:52.630Z,5.70
2023-07-02T01:02:52.585Z,5.50
2023-07-02T01:03:52.547Z,6.20
2023-07-02T01:04:52.586Z,6.60
2023-07-02T01:05:52.639Z,6.20
2023-07-02T01:06:52.508Z,6.60
2023-07-02T01:07:52.504Z,6.20
2023-07-02T01:08:52.479Z,6.60
2023-07-02T01:09:52.461Z,6.60
2023-07-02T01:10:52.454Z,5.60
2023-07-02T01:11:52.456Z,6.90
2023-07-02T01:12:52.452Z,6.70
2023-07-02T01:13:52.420Z,6.00
2023-07-02T01:14:52.430Z,6.10
2023-07-02T01:15:52.454Z,6.20
2023-07-02T01:16:52.408Z,6.40
2023-07-02T01:17:52.424Z,6.20
2023-07-02T01:18:52.369Z,6.00
2023-07-02T01:19:52.394Z,5.80
2023-07-02T01:20:52.354Z,6.10
2023-07-02T01:21:52.358Z,5.80
2023-07-02T01:22:52.324Z,5.70
2023-07-02T01:23:52.303Z,5.80
2023-07-02T01:24:52.312Z,6.30
2023-07-02T01:25:52.296Z,5.70
2023-07-02T01:26:52.287Z,5.80
2023-07-02T01:27:52.270Z,5.50
2023-07-02T01:28:52.270Z,6.00
2023-07-02T01:29:52.242Z,5.40
2023-07-02T01:30:52.286Z,5.40
2023-07-02T01:31:52.302Z,5.30
2023-07-02T01:32:52.241Z,5.20
2023-07-02T01:33:52.236Z,5.20
2023-07-02T01:34:52.203Z,5.10
2023-07-02T01:35:52.193Z,5.20
2023-07-02T01:36:52.180Z,5.20
2023-07-02T01:37:52.178Z,4.90
2023-07-02T01:38:52.162Z,5.50
2023-07-02T01:39:52.163Z,5.40
2023-07-02T01:40:52.153Z,5.20
2023-07-02T01:41:52.121Z,4.70
2023-07-02T01:42:52.105Z,5.70
2023-07-02T01:43:52.097Z,5.40
2023-07-02T01:44:52.094Z,5.00
2023-07-02T01:45:52.148Z,5.20
2023-07-02T01:46:52.070Z,5.60
2023-07-02T01:47:52.090Z,5.30
2023-07-02T01:48:52.046Z,5.10
2023-07-02T01:49:52.070Z,5.00
2023-07-02T01:50:52.132Z,5.50
2023-07-02T01:51:52.019Z,5.00
2023-07-02T01:52:52.003Z,6.30
2023-07-02T01:53:52.009Z,5.30
2023-07-02T01:54:51.994Z,5.70
2023-07-02T01:55:51.973Z,5.30
2023-07-02T01:56:51.968Z,5.30
2023-07-02T01:57:51.954Z,4.50
2023-07-02T01:58:51.937Z,5.40
2023-07-02T01:59:51.942Z,4.90
2023-07-02T02:00:51.921Z,5.30
2023-07-02T02:01:51.912Z,5.10
2023-07-02T02:02:51.987Z,4.40
2023-07-02T02:03:51.905Z,4.70
2023-07-02T02:04:52.005Z,4.30
2023-07-02T02:05:51.856Z,4.90
2023-07-02T02:06:51.862Z,4.70
2023-07-02T02:07:51.845Z,4.20
2023-07-02T02:08:51.842Z,4.60
2023-07-02T02:09:51.826Z,4.50
2023-07-02T02:10:51.812Z,5.00
2023-07-02T02:11:51.793Z,4.60
2023-07-02T02:12:51.790Z,5.10
2023-07-02T02:13:51.793Z,5.40
2023-07-02T02:14:51.781Z,4.60
2023-07-02T02:15:51.818Z,4.60
2023-07-02T02:16:51.844Z,4.50
2023-07-02T02:17:51.753Z,4.50
2023-07-02T02:18:51.736Z,4.80
2023-07-02T02:19:51.714Z,4.90
2023-07-02T02:20:51.725Z,4.70
2023-07-02T02:21:51.689Z,4.40
2023-07-02T02:22:51.710Z,5.10
2023-07-02T02:23:51.688Z,4.70
2023-07-02T02:24:51.665Z,4.20
2023-07-02T02:25:51.648Z,4.10
2023-07-02T02:26:51.663Z,4.90
2023-07-02T02:27:51.641Z,4.70
2023-07-02T02:28:51.627Z,4.80
2023-07-02T02:29:51.612Z,5.00
2023-07-02T02:30:51.806Z,5.20
2023-07-02T02:31:51.649Z,4.50
2023-07-02T02:32:51.677Z,5.00
2023-07-02T02:33:51.561Z,4.60
2023-07-02T02:34:51.548Z,4.80
2023-07-02T02:35:51.548Z,4.70
2023-07-02T02:36:51.545Z,5.30
2023-07-02T02:37:51.562Z,4.50
2023-07-02T02:38:51.549Z,4.70
2023-07-02T02:39:51.510Z,4.30
2023-07-02T02:40:51.488Z,4.40
2023-07-02T02:41:51.491Z,4.40
2023-07-02T02:42:51.478Z,4.40
2023-07-02T02:43:51.508Z,4.60
2023-07-02T02:44:51.441Z,4.80
2023-07-02T02:45:51.450Z,5.10
2023-07-02T02:46:51.474Z,4.90
2023-07-02T02:47:51.445Z,5.10
2023-07-02T02:48:51.406Z,5.00
2023-07-02T02:49:51.395Z,4.90
2023-07-02T02:50:51.445Z,4.90
2023-07-02T02:51:51.373Z,5.30
2023-07-02T02:52:51.372Z,5.00
2023-07-02T02:53:51.394Z,5.70
2023-07-02T02:54:51.331Z,5.20
2023-07-02T02:55:51.335Z,5.50
2023-07-02T02:56:51.328Z,5.10
2023-07-02T02:57:51.299Z,4.80
2023-07-02T02:58:51.310Z,5.10
2023-07-02T02:59:51.283Z,5.80
2023-07-02T03:00:51.354Z,5.20
2023-07-02T03:01:51.313Z,5.10
2023-07-02T03:02:51.332Z,5.80
2023-07-02T03:03:51.428Z,5.30
2023-07-02T03:04:51.305Z,6.10
2023-07-02T03:05:51.273Z,6.00
2023-07-02T03:06:51.203Z,5.60
2023-07-02T03:07:51.189Z,6.00
2023-07-02T03:08:51.184Z,6.30
2023-07-02T03:09:51.201Z,5.90
2023-07-02T03:10:51.334Z,6.70
2023-07-02T03:11:51.188Z,6.00
2023-07-02T03:12:51.158Z,5.80
2023-07-02T03:13:51.140Z,6.10
2023-07-02T03:14:51.130Z,5.70
2023-07-02T03:15:51.133Z,5.60
2023-07-02T03:16:51.129Z,5.60
2023-07-02T03:17:51.125Z,5.90
2023-07-02T03:18:51.103Z,6.20
2023-07-02T03:19:51.118Z,5.70
2023-07-02T03:20:51.104Z,5.70
2023-07-02T03:21:51.042Z,6.20
2023-07-02T03:22:51.030Z,5.60
2023-07-02T03:23:51.012Z,5.60
2023-07-02T03:24:51.027Z,6.00
2023-07-02T03:25:51.031Z,5.90
2023-07-02T03:26:51.016Z,5.40
2023-07-02T03:27:51.024Z,6.10
2023-07-02T03:28:50.959Z,6.20
2023-07-02T03:29:50.962Z,6.60
2023-07-02T03:30:51.445Z,6.40
2023-07-02T03:31:50.941Z,6.90
2023-07-02T03:32:50.956Z,6.70
2023-07-02T03:33:50.921Z,6.60
2023-07-02T03:34:50.919Z,6.80
2023-07-02T03:35:50.913Z,6.60
2023-07-02T03:36:50.905Z,7.30
2023-07-02T03:37:50.876Z,7.80
2023-07-02T03:38:50.885Z,6.80
2023-07-02T03:39:50.925Z,6.90
2023-07-02T03:40:51.136Z,6.30
2023-07-02T03:41:50.833Z,7.10
2023-07-02T03:42:50.815Z,7.10
2023-07-02T03:43:50.830Z,7.00
2023-07-02T03:44:50.817Z,6.70
2023-07-02T03:45:50.844Z,7.60
2023-07-02T03:46:50.793Z,7.50
2023-07-02T03:47:50.812Z,7.70
2023-07-02T03:48:50.770Z,6.90
2023-07-02T03:49:50.760Z,6.90
2023-07-02T03:50:50.767Z,7.10
2023-07-02T03:51:50.725Z,7.30
2023-07-02T03:52:50.722Z,6.90
2023-07-02T03:53:50.722Z,7.20
2023-07-02T03:54:50.770Z,7.60
2023-07-02T03:55:50.714Z,7.50
2023-07-02T03:56:50.731Z,7.70
2023-07-02T03:57:50.704Z,6.90
2023-07-02T03:58:50.660Z,7.50
2023-07-02T03:59:50.646Z,6.60
2023-07-02T04:00:50.867Z,7.20
2023-07-02T04:01:50.650Z,7.10
2023-07-02T04:02:50.687Z,7.10
2023-07-02T04:03:50.621Z,7.40
2023-07-02T04:04:50.610Z,7.20
2023-07-02T04:05:50.621Z,7.00
2023-07-02T04:06:50.569Z,7.30
2023-07-02T04:07:50.607Z,7.60
2023-07-02T04:08:50.557Z,7.40
2023-07-02T04:09:50.552Z,6.90
2023-07-02T04:10:50.867Z,7.60
2023-07-02T04:11:50.532Z,8.00
2023-07-02T04:12:50.579Z,6.70
2023-07-02T04:13:50.501Z,7.00
2023-07-02T04:14:50.497Z,7.30
2023-07-02T04:15:50.517Z,6.50
2023-07-02T04:16:50.478Z,6.70
2023-07-02T04:17:50.475Z,6.70
2023-07-02T04:18:50.445Z,6.90
2023-07-02T04:19:50.451Z,6.60
2023-07-02T04:20:50.639Z,7.10
2023-07-02T04:21:50.430Z,6.50
2023-07-02T04:22:50.399Z,6.60
2023-07-02T04:23:50.412Z,6.90
2023-07-02T04:24:51.445Z,7.00
2023-07-02T04:26:15.872Z,7.20
2023-07-02T04:27:38.487Z,6.70
2023-07-02T04:27:52.303Z,6.80
2023-07-02T04:28:50.342Z,6.90
2023-07-02T04:29:50.309Z,6.20
2023-07-02T04:30:50.460Z,6.90
2023-07-02T04:31:50.353Z,6.60
2023-07-02T04:32:50.340Z,6.70
2023-07-02T04:33:50.356Z,7.20
2023-07-02T04:34:50.260Z,7.30
2023-07-02T04:35:50.301Z,7.80
2023-07-02T04:36:50.954Z,7.70
2023-07-02T04:37:50.250Z,6.60
2023-07-02T04:38:50.217Z,6.80
2023-07-02T04:39:50.225Z,7.10
2023-07-02T04:40:50.407Z,6.70
2023-07-02T04:41:50.210Z,6.70
2023-07-02T04:42:50.182Z,6.70
2023-07-02T04:43:50.163Z,6.60
2023-07-02T04:44:50.152Z,6.40
2023-07-02T04:45:50.292Z,6.90
2023-07-02T04:46:50.221Z,6.60
2023-07-02T04:47:50.128Z,6.90
2023-07-02T04:48:50.151Z,7.00
2023-07-02T04:49:50.094Z,7.00
2023-07-02T04:50:50.382Z,7.10
2023-07-02T04:51:50.070Z,7.30
2023-07-02T04:52:50.076Z,7.40
2023-07-02T04:53:50.049Z,7.20
2023-07-02T04:54:50.070Z,7.10
2023-07-02T04:55:50.050Z,6.90
2023-07-02T04:56:50.017Z,7.80
2023-07-02T04:57:50.034Z,8.00
2023-07-02T04:58:49.998Z,7.30
2023-07-02T04:59:50.010Z,7.00
2023-07-02T05:00:50.288Z,6.80
2023-07-02T05:01:50.026Z,7.10
2023-07-02T05:02:49.999Z,7.30
2023-07-02T05:03:50.086Z,7.10
2023-07-02T05:04:50.076Z,6.30
2023-07-02T05:05:49.959Z,6.50
2023-07-02T05:06:49.923Z,6.30
2023-07-02T05:07:49.931Z,7.30
2023-07-02T05:08:49.945Z,5.90
2023-07-02T05:09:49.934Z,6.10
2023-07-02T05:10:50.237Z,6.80
2023-07-02T05:11:49.868Z,5.80
2023-07-02T05:12:49.856Z,6.00
2023-07-02T05:13:49.879Z,5.90
2023-07-02T05:14:49.835Z,6.60
2023-07-02T05:15:49.825Z,6.10
2023-07-02T05:16:49.851Z,6.50
2023-07-02T05:17:49.827Z,6.00
2023-07-02T05:18:49.828Z,6.10
2023-07-02T05:19:49.796Z,5.70
2023-07-02T05:20:50.115Z,5.90
2023-07-02T05:21:49.808Z,6.10
2023-07-02T05:22:49.834Z,6.50
2023-07-02T05:23:49.795Z,6.20
2023-07-02T05:24:49.776Z,6.10
2023-07-02T05:25:49.755Z,6.70
2023-07-02T05:26:49.699Z,6.50
2023-07-02T05:27:49.761Z,5.60
2023-07-02T05:28:49.681Z,6.00
2023-07-02T05:29:51.499Z,6.70
2023-07-02T05:30:50.117Z,6.40
2023-07-02T05:31:49.748Z,6.20
2023-07-02T05:32:49.721Z,6.20
2023-07-02T05:33:49.633Z,5.90
2023-07-02T05:34:49.628Z,5.70
2023-07-02T05:35:49.639Z,6.30
2023-07-02T05:36:49.658Z,5.60
2023-07-02T05:37:49.630Z,5.60
2023-07-02T05:38:49.591Z,6.40
2023-07-02T05:39:49.670Z,6.00
2023-07-02T05:40:49.830Z,5.70
2023-07-02T05:41:49.656Z,5.90
2023-07-02T05:42:49.574Z,6.30
2023-07-02T05:43:49.537Z,5.90
2023-07-02T05:44:49.574Z,6.50
2023-07-02T05:45:49.514Z,6.50
2023-07-02T05:46:49.553Z,6.30
2023-07-02T05:47:49.499Z,6.30
2023-07-02T05:48:49.484Z,6.50
2023-07-02T05:49:49.486Z,7.00
2023-07-02T05:50:49.760Z,6.40
2023-07-02T05:51:49.464Z,6.80
2023-07-02T05:52:49.509Z,5.90
2023-07-02T05:53:49.764Z,5.40
2023-07-02T05:54:49.465Z,5.60
2023-07-02T05:55:49.473Z,5.60
2023-07-02T05:56:49.403Z,5.60
2023-07-02T05:57:49.433Z,5.50
2023-07-02T05:58:49.380Z,5.70
2023-07-02T05:59:49.388Z,5.80
2023-07-02T06:00:49.727Z,6.00
2023-07-02T06:01:49.396Z,5.40
2023-07-02T06:02:49.352Z,5.60
2023-07-02T06:03:49.364Z,5.40
2023-07-02T06:04:49.401Z,5.30
2023-07-02T06:05:49.395Z,5.70
2023-07-02T06:06:49.297Z,5.10
2023-07-02T06:07:49.374Z,5.10
2023-07-02T06:08:49.295Z,5.00
2023-07-02T06:09:49.279Z,5.10
2023-07-02T06:10:49.643Z,5.20
2023-07-02T06:11:49.235Z,4.30
2023-07-02T06:12:49.277Z,4.60
2023-07-02T06:13:49.212Z,4.90
2023-07-02T06:14:49.230Z,4.30
2023-07-02T06:15:49.211Z,4.70
2023-07-02T06:16:49.276Z,4.40
2023-07-02T06:17:49.221Z,4.10
2023-07-02T06:18:49.252Z,4.00
2023-07-02T06:19:49.194Z,4.10
2023-07-02T06:20:49.443Z,4.40
2023-07-02T06:21:49.137Z,3.90
2023-07-02T06:22:49.122Z,4.20
2023-07-02T06:23:49.114Z,4.20
2023-07-02T06:24:49.097Z,4.60
2023-07-02T06:25:49.089Z,4.20
2023-07-02T06:26:49.115Z,4.20
2023-07-02T06:27:49.108Z,4.50
2023-07-02T06:28:49.080Z,4.40
2023-07-02T06:29:49.075Z,3.90
2023-07-02T06:30:49.423Z,4.70
2023-07-02T06:31:49.042Z,4.20
2023-07-02T06:32:49.041Z,4.10
2023-07-02T06:33:49.073Z,4.20
2023-07-02T06:34:49.014Z,4.20
2023-07-02T06:35:49.025Z,4.70
2023-07-02T06:36:49.012Z,4.40
2023-07-02T06:37:48.983Z,4.80
2023-07-02T06:38:48.999Z,4.30
2023-07-02T06:39:49.011Z,5.20
2023-07-02T06:40:49.410Z,4.90
2023-07-02T06:41:48.999Z,4.80
2023-07-02T06:42:48.925Z,5.10
2023-07-02T06:43:48.915Z,5.40
2023-07-02T06:44:48.915Z,4.70
2023-07-02T06:45:48.876Z,5.00
2023-07-02T06:46:48.918Z,5.60
2023-07-02T06:47:48.939Z,5.00
2023-07-02T06:48:48.860Z,5.20
2023-07-02T06:49:48.865Z,5.30
2023-07-02T06:50:49.165Z,5.40
2023-07-02T06:51:48.815Z,5.00
2023-07-02T06:52:48.814Z,5.40
2023-07-02T06:53:48.846Z,5.20
2023-07-02T06:54:48.827Z,5.20
2023-07-02T06:55:48.769Z,5.00
2023-07-02T06:56:48.770Z,5.30
2023-07-02T06:57:48.762Z,5.00
2023-07-02T06:58:48.736Z,5.40
2023-07-02T06:59:50.572Z,5.20
2023-07-02T07:00:49.005Z,5.20
2023-07-02T07:01:48.798Z,5.20
2023-07-02T07:02:48.821Z,4.80
2023-07-02T07:03:48.767Z,5.20
2023-07-02T07:04:48.676Z,4.80
2023-07-02T07:05:48.657Z,4.50
2023-07-02T07:06:48.712Z,4.30
2023-07-02T07:07:48.640Z,4.90
2023-07-02T07:08:48.650Z,4.80
2023-07-02T07:09:48.621Z,4.50
2023-07-02T07:10:48.964Z,4.80
2023-07-02T07:11:48.664Z,4.50
2023-07-02T07:12:48.641Z,5.60
2023-07-02T07:13:48.588Z,4.70
2023-07-02T07:14:48.587Z,5.00
2023-07-02T07:15:48.578Z,4.30
2023-07-02T07:16:48.573Z,4.70
2023-07-02T07:17:48.736Z,4.30
2023-07-02T07:18:48.576Z,4.40
2023-07-02T07:19:48.572Z,4.60
2023-07-02T07:20:48.985Z,4.40
2023-07-02T07:21:48.768Z,4.50
2023-07-02T07:22:48.680Z,4.60
2023-07-02T07:23:48.590Z,4.60
2023-07-02T07:24:48.522Z,4.50
2023-07-02T07:25:48.608Z,4.40
2023-07-02T07:26:48.455Z,4.70
2023-07-02T07:27:48.577Z,4.10
2023-07-02T07:28:48.451Z,4.20
2023-07-02T07:29:48.530Z,4.30
2023-07-02T07:30:48.900Z,4.30
2023-07-02T07:31:48.485Z,4.40
2023-07-02T07:32:48.512Z,4.00
2023-07-02T07:33:48.388Z,4.20
2023-07-02T07:34:48.485Z,4.20
2023-07-02T07:35:48.608Z,4.30
2023-07-02T07:36:48.382Z,4.50
2023-07-02T07:37:49.165Z,4.20
2023-07-02T07:38:48.390Z,4.90
2023-07-02T07:39:48.441Z,4.60
2023-07-02T07:40:48.915Z,4.70
2023-07-02T07:41:48.430Z,4.70
2023-07-02T07:42:48.416Z,5.20
2023-07-02T07:43:49.189Z,5.10
2023-07-02T07:44:48.390Z,5.50
2023-07-02T07:45:48.265Z,5.50
2023-07-02T07:46:48.310Z,5.80
2023-07-02T07:47:48.446Z,5.60
2023-07-02T07:48:48.218Z,5.50
2023-07-02T07:49:48.263Z,5.80
2023-07-02T07:50:48.457Z,5.70
2023-07-02T07:51:48.262Z,5.90
2023-07-02T07:52:48.232Z,5.70
2023-07-02T07:53:48.301Z,5.90
2023-07-02T07:54:48.429Z,6.10
2023-07-02T07:55:48.293Z,5.90
2023-07-02T07:56:48.204Z,6.90
2023-07-02T07:57:48.163Z,6.20
2023-07-02T07:58:48.232Z,6.30
2023-07-02T07:59:48.202Z,7.20
2023-07-02T08:00:48.446Z,6.70
2023-07-02T08:01:48.093Z,5.80
2023-07-02T08:02:48.156Z,6.50
2023-07-02T08:03:48.078Z,6.50
2023-07-02T08:04:48.107Z,5.90
2023-07-02T08:05:48.025Z,6.30
2023-07-02T08:06:48.010Z,6.70
2023-07-02T08:07:48.048Z,6.50
2023-07-02T08:08:48.008Z,6.70
2023-07-02T08:09:48.010Z,6.20
2023-07-02T08:10:48.366Z,6.30
2023-07-02T08:11:47.957Z,6.20
2023-07-02T08:12:47.972Z,5.90
2023-07-02T08:13:47.962Z,6.60
2023-07-02T08:14:47.943Z,6.20
2023-07-02T08:15:47.963Z,6.30
2023-07-02T08:16:47.922Z,6.40
2023-07-02T08:17:47.962Z,6.70
2023-07-02T08:18:47.905Z,6.80
2023-07-02T08:19:47.874Z,6.80
2023-07-02T08:20:48.150Z,6.20
2023-07-02T08:21:47.874Z,5.90
2023-07-02T08:22:47.864Z,6.30
2023-07-02T08:23:47.827Z,6.50
2023-07-02T08:24:47.820Z,6.50
2023-07-02T08:25:47.815Z,6.70
2023-07-02T08:26:47.815Z,6.20
2023-07-02T08:27:47.804Z,6.80
2023-07-02T08:28:47.793Z,6.70
2023-07-02T08:29:47.769Z,6.50
2023-07-02T08:30:47.948Z,6.80
2023-07-02T08:31:47.779Z,7.00
2023-07-02T08:32:47.763Z,6.40
2023-07-02T08:33:47.732Z,6.90
2023-07-02T08:34:47.770Z,6.60
2023-07-02T08:35:47.710Z,7.20
2023-07-02T08:36:47.716Z,7.60
2023-07-02T08:37:47.685Z,7.60
2023-07-02T08:38:47.678Z,7.30
2023-07-02T08:39:47.667Z,7.10
2023-07-02T08:40:47.911Z,7.70
2023-07-02T08:41:47.679Z,7.30
2023-07-02T08:42:47.630Z,7.20
2023-07-02T08:43:47.619Z,7.50
2023-07-02T08:44:47.614Z,7.30
2023-07-02T08:45:47.617Z,7.30
2023-07-02T08:46:48.850Z,7.40
2023-07-02T08:47:48.775Z,7.50
2023-07-02T08:48:48.743Z,7.10
2023-07-02T08:49:48.762Z,7.50
2023-07-02T08:50:49.244Z,7.20
2023-07-02T08:51:48.721Z,7.50
2023-07-02T08:52:48.694Z,7.50
2023-07-02T08:53:48.748Z,7.30
2023-07-02T08:54:48.709Z,7.90
2023-07-02T08:55:48.718Z,7.40
2023-07-02T08:56:48.723Z,7.60
2023-07-02T08:57:48.687Z,7.90
2023-07-02T08:58:48.653Z,7.40
2023-07-02T08:59:48.652Z,7.20
2023-07-02T09:00:48.890Z,7.70
2023-07-02T09:01:48.694Z,7.50
2023-07-02T09:02:48.706Z,7.60
2023-07-02T09:03:48.607Z,7.20
2023-07-02T09:04:48.680Z,7.70
2023-07-02T09:05:48.595Z,7.50
2023-07-02T09:06:48.717Z,7.70
2023-07-02T09:07:49.815Z,7.70
2023-07-02T09:08:48.555Z,8.10
2023-07-02T09:09:48.658Z,7.40
2023-07-02T09:10:48.771Z,7.60
2023-07-02T09:11:48.554Z,7.70
2023-07-02T09:12:48.521Z,7.70
2023-07-02T09:13:48.548Z,7.80
2023-07-02T09:14:48.514Z,7.60
2023-07-02T09:15:48.490Z,7.50
2023-07-02T09:16:48.526Z,7.80
2023-07-02T09:17:48.524Z,8.30
2023-07-02T09:18:48.468Z,8.00
2023-07-02T09:19:48.495Z,7.40
2023-07-02T09:20:48.905Z,7.60
2023-07-02T09:21:48.478Z,7.90
2023-07-02T09:22:48.458Z,7.60
2023-07-02T09:23:48.504Z,8.80
2023-07-02T09:24:48.438Z,8.50
2023-07-02T09:25:48.390Z,8.10
2023-07-02T09:26:48.381Z,7.70
2023-07-02T09:27:48.424Z,8.30
2023-07-02T09:28:50.787Z,8.50
2023-07-02T09:29:48.422Z,8.60
2023-07-02T09:30:48.542Z,8.00
2023-07-02T09:32:07.322Z,8.10
2023-07-02T09:32:50.456Z,8.00
2023-07-02T09:33:48.551Z,8.10
2023-07-02T09:34:48.423Z,8.20
2023-07-02T09:35:49.056Z,8.20
2023-07-02T09:36:48.774Z,8.20
2023-07-02T09:37:48.426Z,8.20
2023-07-02T09:38:48.414Z,8.30
2023-07-02T09:39:48.664Z,8.60
2023-07-02T09:40:48.469Z,8.70
2023-07-02T09:41:48.312Z,8.40
2023-07-02T09:42:48.311Z,8.60
2023-07-02T09:43:48.338Z,8.10
2023-07-02T09:44:48.332Z,8.90
2023-07-02T09:45:48.924Z,7.90
2023-07-02T09:46:48.361Z,8.10
2023-07-02T09:47:48.362Z,8.30
2023-07-02T09:48:48.336Z,8.30
2023-07-02T09:49:48.251Z,8.30
2023-07-02T09:50:48.690Z,8.60
2023-07-02T09:51:48.192Z,9.00
2023-07-02T09:52:48.226Z,8.70
2023-07-02T09:53:48.173Z,8.50
2023-07-02T09:54:48.830Z,8.00
2023-07-02T09:55:48.236Z,8.90
2023-07-02T09:56:48.308Z,8.60
2023-07-02T09:57:48.348Z,8.60
2023-07-02T09:58:48.333Z,8.80
2023-07-02T09:59:48.145Z,8.90
2023-07-02T10:00:48.457Z,8.80
2023-07-02T10:01:48.222Z,8.50
2023-07-02T10:02:48.139Z,8.60
2023-07-02T10:03:48.104Z,8.80
2023-07-02T10:04:48.178Z,8.00
2023-07-02T10:05:48.176Z,8.10
2023-07-02T10:06:48.064Z,9.00
2023-07-02T10:07:48.895Z,8.90
2023-07-02T10:08:47.990Z,10.10
2023-07-02T10:09:48.043Z,9.00
2023-07-02T10:10:48.230Z,8.80
2023-07-02T10:11:47.957Z,9.00
2023-07-02T10:12:47.966Z,9.10
2023-07-02T10:13:47.917Z,9.40
2023-07-02T10:14:48.001Z,9.50
2023-07-02T10:15:47.944Z,9.60
2023-07-02T10:16:47.954Z,8.50
2023-07-02T10:17:48.181Z,9.10
2023-07-02T10:18:48.026Z,9.60
2023-07-02T10:19:48.272Z,9.50
2023-07-02T10:20:49.715Z,9.50
2023-07-02T10:21:52.516Z,9.30
2023-07-02T10:22:49.029Z,9.40
2023-07-02T10:23:48.163Z,9.00
2023-07-02T10:25:11.526Z,9.30
2023-07-02T10:25:48.911Z,10.20
2023-07-02T10:26:47.952Z,9.90
2023-07-02T10:27:48.850Z,9.40
2023-07-02T10:28:47.783Z,9.20
2023-07-02T10:29:47.928Z,9.10
2023-07-02T10:30:48.023Z,9.30
2023-07-02T10:31:47.912Z,9.10
2023-07-02T10:32:51.898Z,9.60
2023-07-02T10:33:49.005Z,8.80
2023-07-02T10:34:48.120Z,8.50
2023-07-02T10:35:47.990Z,8.80
2023-07-02T10:36:48.970Z,8.40
2023-07-02T10:37:47.954Z,8.70
2023-07-02T10:38:48.192Z,9.10
2023-07-02T10:43:46.879Z,9.10
2023-07-02T10:44:46.988Z,8.50
2023-07-02T10:46:05.099Z,9.00
2023-07-02T10:48:01.383Z,8.90
2023-07-02T10:49:01.427Z,9.30
2023-07-02T10:50:01.209Z,9.60
2023-07-02T10:51:23.704Z,9.70
2023-07-02T10:52:03.125Z,9.50
2023-07-02T10:53:01.120Z,9.20
2023-07-02T10:54:01.094Z,8.60
2023-07-02T10:55:01.070Z,9.00
2023-07-02T10:56:01.043Z,9.10
2023-07-02T10:57:01.006Z,9.50
2023-07-02T10:58:29.011Z,8.30
2023-07-02T11:02:09.249Z,9.00
2023-07-02T11:02:58.841Z,9.10
2023-07-02T11:03:57.552Z,8.90
2023-07-02T11:04:58.627Z,9.30
2023-07-02T11:05:57.393Z,9.00
2023-07-02T11:09:05.338Z,9.00
2023-07-02T11:09:32.863Z,9.10
2023-07-02T11:10:35.954Z,8.40
2023-07-02T11:14:33.062Z,8.80
2023-07-02T11:15:33.025Z,9.00
2023-07-02T11:16:33.074Z,8.70
2023-07-02T11:17:33.094Z,9.50
2023-07-02T11:18:33.235Z,8.60
2023-07-02T11:19:32.991Z,8.90
2023-07-02T11:20:32.974Z,8.90
2023-07-02T11:21:33.055Z,8.60
2023-07-02T11:22:32.977Z,8.40
2023-07-02T11:23:32.944Z,9.40
2023-07-02T11:24:33.259Z,8.80
2023-07-02T11:25:39.931Z,9.10
2023-07-02T11:26:32.923Z,8.60
2023-07-02T11:27:32.911Z,9.30
2023-07-02T11:28:32.890Z,8.50
2023-07-02T11:29:32.888Z,8.90
2023-07-02T11:30:33.164Z,8.60
2023-07-02T11:55:53.704Z,8.20
2023-07-02T11:56:34.688Z,8.60
2023-07-02T11:57:30.974Z,8.60
2023-07-02T11:58:30.214Z,9.00
2023-07-02T13:07:22.745Z,8.10
2023-07-02T13:08:11.687Z,7.80
2023-07-02T13:09:11.293Z,8.70
2023-07-02T13:32:46.089Z,8.90
2023-07-02T14:46:09.267Z,8.30
2023-07-02T14:47:09.406Z,9.00
2023-07-02T14:48:09.279Z,8.90
2023-07-02T14:49:09.247Z,7.80
2023-07-02T14:50:09.277Z,8.50
2023-07-02T14:51:09.229Z,8.50
2023-07-02T14:52:09.261Z,7.90
2023-07-02T14:53:09.377Z,8.20
2023-07-02T14:54:09.193Z,8.30
2023-07-02T14:55:09.202Z,8.40
2023-07-02T14:56:09.161Z,8.50
2023-07-02T14:57:09.170Z,8.60
2023-07-02T14:58:09.156Z,8.00
2023-07-02T14:59:09.129Z,7.80
2023-07-02T15:00:09.117Z,8.50
2023-07-02T15:01:09.127Z,8.00
2023-07-02T15:02:09.140Z,7.80
2023-07-02T15:03:09.208Z,8.30
2023-07-02T15:04:09.220Z,8.10
2023-07-02T15:05:09.313Z,7.80
2023-07-02T15:06:09.071Z,7.70
2023-07-02T15:07:09.114Z,7.10
2023-07-02T15:08:10.247Z,8.00
2023-07-02T15:09:10.233Z,7.90
2023-07-02T15:10:10.195Z,7.80
2023-07-02T15:11:10.200Z,7.60
2023-07-02T15:12:10.233Z,7.40
2023-07-02T15:13:10.187Z,7.50
2023-07-02T15:14:10.186Z,7.60
2023-07-02T15:15:10.127Z,7.70
2023-07-02T15:16:10.148Z,7.50
2023-07-02T15:17:10.167Z,7.30
2023-07-02T15:18:10.102Z,7.70
2023-07-02T15:19:10.104Z,7.50
2023-07-02T15:20:10.084Z,7.80
2023-07-02T15:21:10.109Z,7.70
2023-07-02T15:22:10.187Z,7.90
2023-07-02T15:23:10.074Z,8.00
2023-07-02T15:24:10.090Z,7.80
2023-07-02T15:25:10.053Z,7.50
2023-07-02T15:26:10.045Z,8.30
2023-07-02T15:27:10.102Z,7.40
2023-07-02T15:28:10.050Z,8.20
2023-07-02T15:29:10.015Z,8.50
2023-07-02T15:30:10.010Z,8.20
2023-07-02T15:31:10.062Z,7.90
2023-07-02T15:32:10.152Z,7.70
2023-07-02T15:33:09.981Z,7.90
2023-07-02T15:34:09.989Z,8.40
2023-07-02T15:35:10.973Z,7.80
2023-07-02T15:36:09.936Z,7.60
2023-07-02T15:37:09.926Z,8.50
2023-07-02T15:38:09.922Z,7.40
2023-07-02T15:39:09.940Z,7.60
2023-07-02T15:40:09.888Z,8.10
2023-07-02T15:41:09.903Z,7.70
2023-07-02T15:42:09.935Z,7.70
2023-07-02T15:43:09.968Z,7.80
2023-07-02T15:44:09.881Z,8.00
2023-07-02T15:45:09.851Z,7.60
2023-07-02T15:46:09.860Z,8.30
2023-07-02T15:47:09.888Z,7.80
2023-07-02T15:48:09.836Z,7.60
2023-07-02T15:49:09.852Z,7.80
2023-07-02T15:50:09.815Z,7.50
2023-07-02T15:51:09.813Z,7.70
2023-07-02T15:52:09.819Z,7.90
2023-07-02T15:53:09.816Z,7.70
2023-07-02T15:54:09.784Z,7.80
2023-07-02T15:55:09.814Z,7.70
2023-07-02T15:56:09.752Z,8.20
2023-07-02T15:57:09.809Z,8.30
2023-07-02T15:58:09.861Z,7.70
2023-07-02T15:59:09.753Z,8.20
2023-07-02T16:00:09.737Z,8.30
2023-07-02T16:01:09.690Z,8.00
2023-07-02T16:02:09.728Z,8.30
2023-07-02T16:03:09.813Z,8.20
2023-07-02T16:04:10.174Z,7.90
2023-07-02T16:05:09.834Z,8.50
2023-07-02T16:06:09.944Z,7.80
2023-07-02T16:07:09.637Z,7.80
2023-07-02T16:08:09.961Z,8.30
2023-07-02T16:09:09.713Z,7.70
2023-07-02T16:10:09.601Z,8.00
2023-07-02T16:11:09.600Z,8.00
2023-07-02T16:12:09.638Z,8.40
2023-07-02T16:13:09.614Z,8.10
2023-07-02T16:14:09.600Z,7.90
2023-07-02T16:15:09.572Z,8.20
2023-07-02T16:16:09.563Z,8.00
2023-07-02T16:17:09.627Z,8.00
2023-07-02T16:18:09.576Z,8.30
2023-07-02T16:19:09.745Z,8.60
2023-07-02T16:20:09.789Z,7.50
2023-07-02T16:21:09.526Z,8.50
2023-07-02T16:22:09.542Z,7.90
2023-07-02T16:23:09.533Z,7.90
2023-07-02T16:24:09.498Z,7.90
2023-07-02T16:25:09.481Z,8.40
2023-07-02T16:26:09.970Z,7.70
2023-07-02T16:27:09.719Z,8.40
2023-07-02T16:28:09.451Z,8.70
2023-07-02T16:29:09.484Z,8.80
2023-07-02T16:30:09.484Z,8.40
2023-07-02T16:31:09.460Z,8.20
2023-07-02T16:32:09.487Z,8.50
2023-07-02T16:33:09.376Z,8.60
2023-07-02T16:34:09.348Z,8.20
2023-07-02T16:35:09.350Z,8.60
2023-07-02T16:36:09.375Z,8.30
2023-07-02T16:37:09.326Z,9.00
2023-07-02T16:38:09.316Z,8.20